Time;durP1;ratioP1;P1;durP2;ratioP2;P2;SDS_P1;SDS_P2;PMS_P1;PMS_P2;Temp;Humidity;BMP_temperature;BMP_pressure;BME280_temperature;BME280_humidity;BME280_pressure;Samples;Min_cycle;Max_cycle;Signal;HPM_P1;HPM_P2
2022/06/20 00:02:21;;;;;;;3.10;2.03;;;28.50;49.70;;;;;;5068834;28;20155;-64
2022/06/20 00:04:48;;;;;;;2.45;1.80;;;28.50;49.70;;;;;;5069198;28;20024;-68
2022/06/20 00:07:14;;;;;;;3.58;2.25;;;28.50;49.70;;;;;;5074045;28;20028;-67
2022/06/20 00:09:40;;;;;;;2.85;1.90;;;28.50;49.70;;;;;;5065427;28;20016;-67
2022/06/20 00:12:07;;;;;;;2.58;1.83;;;28.50;49.70;;;;;;5066662;28;20024;-66
2022/06/20 00:14:32;;;;;;;3.38;2.42;;;28.50;49.70;;;;;;5073390;28;20024;-65
2022/06/20 00:16:58;;;;;;;2.75;1.95;;;28.50;49.70;;;;;;5073835;28;20385;-65
2022/06/20 00:19:23;;;;;;;3.38;2.10;;;28.50;49.70;;;;;;5072736;28;20321;-66
2022/06/20 00:21:49;;;;;;;5.07;2.80;;;28.50;49.70;;;;;;5069502;28;20102;-67
2022/06/20 00:24:15;;;;;;;2.83;2.05;;;28.50;49.70;;;;;;5069163;28;20782;-66
2022/06/20 00:26:40;;;;;;;3.08;2.00;;;28.50;49.70;;;;;;5074507;28;20055;-67
2022/06/20 00:29:07;;;;;;;2.70;2.15;;;28.50;49.70;;;;;;5073272;28;20043;-64
2022/06/20 00:31:34;;;;;;;3.05;2.08;;;28.50;50.20;;;;;;5042533;28;20039;-68
2022/06/20 00:34:00;;;;;;;2.78;2.00;;;28.50;49.70;;;;;;5030882;28;20043;-67
2022/06/20 00:36:26;;;;;;;3.00;2.22;;;28.50;49.70;;;;;;5051001;28;20099;-68
2022/06/20 00:38:56;;;;;;;2.92;2.10;;;28.50;49.70;;;;;;5049188;28;20086;-67
2022/06/20 00:41:31;;;;;;;2.75;2.20;;;28.50;49.60;;;;;;5051927;28;20112;-67
2022/06/20 00:43:57;;;;;;;2.58;2.00;;;28.50;49.70;;;;;;5048727;28;20035;-67
2022/06/20 00:46:41;;;;;;;2.90;2.08;;;28.50;49.60;;;;;;5051391;28;20024;-65
2022/06/20 00:49:22;;;;;;;3.97;2.58;;;28.50;49.60;;;;;;5050201;28;20404;-67
2022/06/20 00:52:17;;;;;;;3.35;2.25;;;28.50;49.70;;;;;;5052306;28;20345;-67
2022/06/20 00:54:51;;;;;;;3.20;2.30;;;28.50;49.60;;;;;;5029566;28;20094;-64
2022/06/20 00:57:22;;;;;;;2.45;1.85;;;28.50;49.60;;;;;;5052046;28;20018;-64
2022/06/20 00:59:54;;;;;;;3.25;2.10;;;28.50;49.60;;;;;;5051776;28;20040;-64
2022/06/20 01:02:27;;;;;;;2.97;2.15;;;28.50;49.60;;;;;;5051121;28;20090;-66
2022/06/20 01:05:00;;;;;;;3.75;2.53;;;28.50;49.60;;;;;;5051403;28;20108;-67
2022/06/20 01:07:49;;;;;;;3.10;2.20;;;28.50;49.60;;;;;;5031854;28;20059;-67
2022/06/20 01:10:17;;;;;;;3.10;1.90;;;28.50;49.60;;;;;;5009167;28;20120;-64
2022/06/20 01:12:55;;;;;;;2.70;2.15;;;28.50;49.60;;;;;;5051532;28;20037;-66
2022/06/20 01:15:28;;;;;;;2.67;2.03;;;28.50;49.60;;;;;;5047251;28;20050;-66
2022/06/20 01:17:54;;;;;;;3.45;2.20;;;28.50;50.10;;;;;;5054694;28;20122;-67
2022/06/20 01:20:26;;;;;;;3.03;2.10;;;28.40;49.50;;;;;;5046798;28;20523;-64
2022/06/20 01:23:19;;;;;;;2.60;2.00;;;28.40;49.50;;;;;;5050409;28;20032;-66
2022/06/20 01:26:14;;;;;;;3.03;1.90;;;28.50;49.50;;;;;;5049010;28;20028;-66
2022/06/20 01:28:42;;;;;;;2.60;1.67;;;28.50;49.50;;;;;;5052048;28;20056;-64
2022/06/20 01:31:10;;;;;;;2.97;2.00;;;28.50;49.50;;;;;;5050216;28;20024;-66
2022/06/20 01:33:37;;;;;;;4.28;2.58;;;28.50;49.50;;;;;;5052171;28;20259;-64
2022/06/20 01:38:47;;;;;;;2.83;2.05;;;28.40;49.50;;;;;;5048980;28;20101;-67
2022/06/20 01:44:00;;;;;;;3.20;1.92;;;28.50;49.50;;;;;;5047627;28;20508;-62
2022/06/20 01:46:28;;;;;;;4.65;2.38;;;28.40;49.40;;;;;;5047097;28;20040;-62
2022/06/20 01:48:59;;;;;;;2.97;1.92;;;28.40;49.40;;;;;;5050801;28;20064;-67
2022/06/20 01:51:31;;;;;;;3.42;2.17;;;28.50;49.50;;;;;;5044538;28;20654;-64
2022/06/20 01:53:58;;;;;;;2.88;2.10;;;28.40;49.40;;;;;;5050702;28;20040;-67
2022/06/20 01:56:27;;;;;;;3.10;2.30;;;28.40;49.40;;;;;;5046073;28;20032;-66
2022/06/20 01:59:08;;;;;;;3.03;2.20;;;28.40;49.40;;;;;;5046258;28;20670;-62
2022/06/20 02:01:37;;;;;;;2.67;1.88;;;28.40;49.40;;;;;;5046647;28;20029;-65
2022/06/20 02:04:06;;;;;;;3.55;2.35;;;28.40;49.40;;;;;;5045711;28;20028;-63
2022/06/20 02:06:32;;;;;;;3.25;2.03;;;28.40;49.30;;;;;;5047423;28;20078;-67
2022/06/20 02:08:59;;;;;;;3.60;2.20;;;28.40;49.30;;;;;;5047569;28;20029;-66
2022/06/20 02:11:30;;;;;;;4.25;2.30;;;28.40;49.30;;;;;;5048155;28;20455;-67
2022/06/20 02:14:01;;;;;;;2.80;2.20;;;28.40;49.30;;;;;;5050600;28;20032;-65
2022/06/20 02:16:30;;;;;;;3.17;2.05;;;28.40;49.30;;;;;;5048385;28;20028;-67
2022/06/20 02:19:01;;;;;;;3.25;1.95;;;28.40;49.30;;;;;;5051396;28;20060;-64
2022/06/20 02:21:31;;;;;;;3.00;2.20;;;28.40;49.30;;;;;;5051478;28;20040;-66
2022/06/20 02:24:06;;;;;;;2.70;1.92;;;28.40;49.30;;;;;;5050341;28;20025;-66
2022/06/20 02:26:35;;;;;;;2.80;1.90;;;28.40;49.30;;;;;;5048980;28;20139;-66
2022/06/20 02:29:06;;;;;;;3.38;2.17;;;28.40;49.30;;;;;;5050243;28;20129;-66
2022/06/20 02:31:32;;;;;;;3.03;2.13;;;28.40;49.30;;;;;;5049587;28;20424;-67
2022/06/20 02:33:59;;;;;;;2.88;2.15;;;28.40;49.30;;;;;;5049713;28;20029;-67
2022/06/20 02:36:24;;;;;;;2.70;1.92;;;28.40;49.30;;;;;;5048688;28;20235;-66
2022/06/20 02:38:52;;;;;;;2.78;2.00;;;28.40;49.30;;;;;;5030276;28;20319;-66
2022/06/20 02:41:21;;;;;;;2.50;1.98;;;28.40;49.30;;;;;;5047789;28;20046;-66
2022/06/20 02:43:53;;;;;;;2.70;2.05;;;28.40;49.30;;;;;;5042938;28;20040;-65
2022/06/20 02:46:23;;;;;;;3.10;2.20;;;28.40;49.30;;;;;;5049905;28;20045;-67
2022/06/20 02:48:51;;;;;;;3.00;2.10;;;28.40;49.30;;;;;;5045711;28;20044;-66
2022/06/20 02:51:22;;;;;;;3.20;2.00;;;28.40;49.30;;;;;;5047552;28;20025;-66
2022/06/20 02:53:51;;;;;;;2.80;2.00;;;28.40;49.30;;;;;;5049713;28;20029;-66
2022/06/20 02:56:20;;;;;;;3.40;2.10;;;28.40;49.20;;;;;;5044089;28;20392;-63
2022/06/20 02:58:54;;;;;;;2.30;2.00;;;28.40;49.30;;;;;;5047746;28;20080;-66
2022/06/20 03:01:40;;;;;;;3.47;2.30;;;28.40;49.30;;;;;;5052234;28;20058;-67
2022/06/20 03:04:07;;;;;;;3.08;2.13;;;28.40;49.30;;;;;;5047659;28;20033;-63
2022/06/20 03:06:38;;;;;;;2.80;2.30;;;28.40;49.30;;;;;;5049827;28;20028;-66
2022/06/20 03:09:05;;;;;;;3.13;2.15;;;28.40;49.30;;;;;;5046475;28;20056;-66
2022/06/20 03:11:34;;;;;;;3.97;2.25;;;28.40;49.30;;;;;;5046911;28;20025;-67
2022/06/20 03:14:03;;;;;;;3.03;2.17;;;28.40;49.30;;;;;;5050514;28;20086;-66
2022/06/20 03:16:29;;;;;;;4.25;2.38;;;28.40;49.30;;;;;;5051535;28;20032;-67
2022/06/20 03:18:57;;;;;;;3.30;2.30;;;28.40;49.30;;;;;;5048198;28;20082;-63
2022/06/20 03:21:27;;;;;;;2.70;1.95;;;28.40;49.30;;;;;;5048883;28;20025;-66
2022/06/20 03:23:53;;;;;;;2.80;2.22;;;28.40;49.30;;;;;;5048615;28;20119;-67
2022/06/20 03:26:25;;;;;;;2.90;2.10;;;28.40;49.30;;;;;;5049430;28;20029;-67
2022/06/20 03:28:52;;;;;;;3.58;2.40;;;28.30;49.20;;;;;;5049515;28;20040;-65
2022/06/20 03:31:18;;;;;;;3.08;2.17;;;28.40;49.30;;;;;;5050565;28;20032;-65
2022/06/20 03:33:44;;;;;;;3.22;2.10;;;28.30;49.20;;;;;;5048208;28;20498;-66
2022/06/20 03:36:19;;;;;;;2.85;2.25;;;28.40;49.30;;;;;;5026588;28;20037;-66
2022/06/20 03:38:46;;;;;;;3.03;2.10;;;28.30;49.20;;;;;;5024210;28;20032;-66
2022/06/20 03:41:13;;;;;;;3.38;2.50;;;28.30;49.20;;;;;;5046599;28;20033;-67
2022/06/20 03:43:45;;;;;;;3.80;2.38;;;28.30;49.20;;;;;;5048722;28;20393;-66
2022/06/20 03:46:41;;;;;;;3.25;2.20;;;28.30;49.20;;;;;;5047939;28;20024;-66
2022/06/20 03:49:26;;;;;;;2.70;2.08;;;28.30;49.20;;;;;;5049689;28;20334;-66
2022/06/20 03:52:00;;;;;;;2.95;2.20;;;28.30;49.20;;;;;;5050995;28;20041;-66
2022/06/20 03:54:54;;;;;;;4.78;3.08;;;28.30;49.20;;;;;;5045481;28;20182;-63
2022/06/20 03:57:48;;;;;;;7.88;4.93;;;28.30;49.50;;;;;;5047297;28;20045;-66
2022/06/20 04:00:17;;;;;;;8.68;4.38;;;28.10;49.80;;;;;;5043857;28;20090;-66
2022/06/20 04:02:55;;;;;;;6.70;4.38;;;28.00;50.10;;;;;;5049281;28;20028;-66
2022/06/20 04:05:45;;;;;;;7.85;4.80;;;28.00;50.10;;;;;;5049947;28;20087;-65
2022/06/20 04:10:57;;;;;;;8.50;4.90;;;28.00;50.20;;;;;;5046522;28;20150;-62
2022/06/20 04:11:16;;;;;;;7.88;5.63;;;27.90;50.20;;;;;;5049753;28;20090;-62
2022/06/20 04:13:59;;;;;;;8.23;5.80;;;27.80;50.60;;;;;;5051454;28;20043;-66
2022/06/20 04:16:39;;;;;;;9.13;5.70;;;27.70;50.60;;;;;;5050920;28;20143;-66
2022/06/20 04:19:29;;;;;;;7.82;5.00;;;27.60;50.80;;;;;;5029374;28;20040;-63
2022/06/20 04:21:58;;;;;;;7.55;5.05;;;27.60;50.90;;;;;;5054517;28;20025;-67
2022/06/20 04:24:33;;;;;;;7.15;4.93;;;27.60;50.80;;;;;;5048978;28;20056;-66
2022/06/20 04:27:09;;;;;;;7.40;4.43;;;27.60;50.80;;;;;;5051760;28;20079;-66
2022/06/20 04:29:41;;;;;;;10.48;5.38;;;27.70;50.70;;;;;;5047618;28;20044;-65
2022/06/20 04:32:33;;;;;;;7.05;5.25;;;27.60;50.60;;;;;;5051070;28;20114;-66
2022/06/20 04:35:19;;;;;;;7.88;5.50;;;27.50;50.70;;;;;;5048617;28;20450;-65
2022/06/20 04:38:01;;;;;;;7.32;5.43;;;27.60;50.80;;;;;;5050447;28;20123;-65
2022/06/20 04:40:40;;;;;;;7.70;4.88;;;27.50;50.80;;;;;;5045477;28;20617;-66
2022/06/20 04:43:16;;;;;;;;;;;27.50;50.80;;;;;;5046983;28;20028;-65
2022/06/20 04:46:06;;;;;;;7.13;5.28;;;27.50;51.00;;;;;;5046032;28;19932;-66
2022/06/20 04:48:32;;;;;;;7.90;4.55;;;27.50;51.00;;;;;;5049333;28;20067;-66
2022/06/20 04:51:00;;;;;;;6.75;4.75;;;27.50;51.00;;;;;;5047653;28;20086;-66
2022/06/20 04:53:33;;;;;;;9.32;6.07;;;27.50;51.10;;;;;;5045532;28;20107;-65
2022/06/20 04:56:03;;;;;;;8.43;5.53;;;27.40;51.10;;;;;;5047467;28;20043;-65
2022/06/20 04:58:47;;;;;;;8.32;5.40;;;27.40;51.20;;;;;;5047387;28;20123;-65
2022/06/20 05:01:12;;;;;;;9.52;5.18;;;27.30;51.30;;;;;;5029520;28;20086;-66
2022/06/20 05:03:48;;;;;;;8.38;5.53;;;27.30;51.30;;;;;;5043882;28;20490;-66
2022/06/20 05:06:23;;;;;;;9.40;5.93;;;27.20;51.50;;;;;;5050040;28;20032;-66
2022/06/20 05:09:25;;;;;;;7.15;4.93;;;27.10;51.30;;;;;;5047371;28;20112;-65
2022/06/20 05:12:01;;;;;;;7.70;5.18;;;27.10;51.30;;;;;;5045690;28;20097;-65
2022/06/20 05:14:39;;;;;;;9.15;6.07;;;27.00;51.10;;;;;;5039327;28;22229;-65
2022/06/20 05:17:17;;;;;;;7.30;5.38;;;26.90;51.60;;;;;;5052370;28;20036;-65
2022/06/20 05:19:46;;;;;;;9.68;5.50;;;26.80;51.80;;;;;;5046166;28;20033;-65
2022/06/20 05:22:19;;;;;;;7.53;5.30;;;26.70;51.80;;;;;;5032551;28;20121;-65
2022/06/20 05:24:45;;;;;;;7.75;5.57;;;26.70;51.80;;;;;;5043383;28;20037;-63
2022/06/20 05:27:20;;;;;;;8.20;5.60;;;26.70;51.80;;;;;;5041582;28;20033;-62
2022/06/20 05:29:47;;;;;;;7.35;5.30;;;26.60;52.10;;;;;;5045535;28;20032;-63
2022/06/20 05:32:20;;;;;;;10.23;5.55;;;26.60;52.00;;;;;;5048707;28;20033;-65
2022/06/20 05:34:58;;;;;;;8.88;5.25;;;26.50;52.00;;;;;;5049308;28;20032;-65
2022/06/20 05:37:42;;;;;;;8.88;4.88;;;26.50;52.20;;;;;;5048320;28;20497;-65
2022/06/20 05:40:16;;;;;;;8.60;5.13;;;26.50;52.40;;;;;;5048369;28;20039;-62
2022/06/20 05:42:42;;;;;;;7.25;4.75;;;26.40;52.00;;;;;;5042820;28;20104;-65
2022/06/20 05:45:33;;;;;;;8.23;4.55;;;26.40;52.00;;;;;;5047277;28;20575;-61
2022/06/20 05:48:02;;;;;;;8.32;4.78;;;26.50;52.40;;;;;;5043313;28;20041;-64
2022/06/20 05:50:38;;;;;;;5.78;4.32;;;26.50;51.50;;;;;;5045932;28;20145;-65
2022/06/20 05:53:10;;;;;;;7.25;3.97;;;26.50;51.40;;;;;;5046663;28;20036;-65
2022/06/20 05:55:46;;;;;;;9.60;4.00;;;26.50;51.70;;;;;;5048948;28;20032;-66
2022/06/20 05:58:20;;;;;;;7.10;3.60;;;26.50;52.10;;;;;;5040660;28;20048;-65
2022/06/20 06:00:47;;;;;;;7.72;3.50;;;26.50;52.10;;;;;;5043828;28;20111;-65
2022/06/20 06:03:20;;;;;;;6.25;3.30;;;26.60;52.00;;;;;;5047033;28;20063;-65
2022/06/20 06:05:52;;;;;;;4.40;2.90;;;26.70;51.90;;;;;;5047467;28;20040;-66
2022/06/20 06:08:46;;;;;;;4.40;3.00;;;26.70;51.80;;;;;;5044258;28;20529;-65
2022/06/20 06:11:24;;;;;;;4.07;2.80;;;26.80;51.80;;;;;;5049019;28;20710;-65
2022/06/20 06:14:04;;;;;;;4.72;3.08;;;26.80;51.70;;;;;;5048504;28;20086;-64
2022/06/20 06:16:53;;;;;;;4.68;2.75;;;26.80;51.50;;;;;;5048781;28;20032;-65
2022/06/20 06:19:37;;;;;;;4.72;3.08;;;26.90;51.60;;;;;;5049397;28;20021;-66
2022/06/20 06:22:12;;;;;;;6.03;3.30;;;26.90;51.30;;;;;;5046290;28;20040;-61
2022/06/20 06:24:42;;;;;;;3.65;2.83;;;26.90;51.20;;;;;;5046083;28;20077;-65
2022/06/20 06:27:13;;;;;;;4.50;2.67;;;27.00;51.20;;;;;;5046281;28;20031;-65
2022/06/20 06:29:47;;;;;;;4.90;2.90;;;27.00;51.10;;;;;;5045461;28;20024;-66
2022/06/20 06:32:24;;;;;;;4.28;2.70;;;27.00;51.00;;;;;;5047530;28;20048;-66
2022/06/20 06:35:13;;;;;;;3.72;2.70;;;27.10;51.00;;;;;;5048096;28;20036;-65
2022/06/20 06:37:51;;;;;;;4.47;2.90;;;27.10;50.90;;;;;;5047830;28;20040;-65
2022/06/20 06:40:36;;;;;;;3.42;2.47;;;27.10;50.90;;;;;;5045934;28;20036;-67
2022/06/20 06:43:22;;;;;;;4.32;3.10;;;27.20;50.80;;;;;;5049294;28;20032;-66
2022/06/20 06:45:52;;;;;;;4.25;2.65;;;27.20;50.70;;;;;;5044238;28;20025;-65
2022/06/20 06:48:39;;;;;;;4.43;2.58;;;27.30;50.70;;;;;;5048445;28;20485;-66
2022/06/20 06:51:11;;;;;;;4.80;2.90;;;27.30;50.60;;;;;;5041728;28;20950;-65
2022/06/20 06:53:50;;;;;;;4.43;2.50;;;27.30;50.50;;;;;;5045875;28;20611;-62
2022/06/20 06:56:34;;;;;;;4.32;3.00;;;27.30;50.40;;;;;;5042521;28;20070;-66
2022/06/20 06:59:33;;;;;;;4.75;3.20;;;27.40;50.50;;;;;;5047102;28;20040;-63
2022/06/20 07:02:02;;;;;;;4.00;2.80;;;27.40;50.40;;;;;;5044942;28;20041;-64
2022/06/20 07:04:34;;;;;;;3.92;2.50;;;27.40;50.30;;;;;;5047231;28;20028;-63
2022/06/20 07:07:25;;;;;;;3.13;2.42;;;27.50;50.40;;;;;;5047350;28;20040;-66
2022/06/20 07:09:55;;;;;;;3.67;2.53;;;27.50;50.40;;;;;;5037785;28;20145;-65
2022/06/20 07:12:43;;;;;;;4.13;2.85;;;27.60;50.30;;;;;;5045172;28;20119;-63
2022/06/20 07:15:28;;;;;;;3.42;2.50;;;27.60;50.30;;;;;;5047823;28;20041;-65
2022/06/20 07:17:54;;;;;;;3.72;2.42;;;27.60;50.20;;;;;;5048176;28;20121;-67
2022/06/20 07:20:22;;;;;;;4.53;2.50;;;27.60;50.10;;;;;;5050613;28;20032;-65
2022/06/20 07:22:48;;;;;;;4.15;2.78;;;27.70;50.70;;;;;;5049797;28;20481;-65
2022/06/20 07:25:35;;;;;;;4.32;2.50;;;27.70;50.10;;;;;;5050380;28;20078;-62
2022/06/20 07:28:09;;;;;;;8.90;3.25;;;27.70;50.00;;;;;;5050252;28;20526;-67
2022/06/20 07:30:52;;;;;;;4.55;2.58;;;27.70;50.00;;;;;;5046058;28;20028;-61
2022/06/20 07:33:29;;;;;;;4.20;2.40;;;27.80;50.00;;;;;;5048664;28;20814;-65
2022/06/20 07:35:58;;;;;;;4.78;2.65;;;27.80;49.90;;;;;;5049517;28;20039;-64
2022/06/20 07:38:36;;;;;;;4.83;2.87;;;27.80;49.80;;;;;;5048926;28;20036;-66
2022/06/20 07:41:13;;;;;;;4.55;2.70;;;27.90;49.90;;;;;;5050479;28;20029;-65
2022/06/20 07:43:38;;;;;;;3.85;2.33;;;27.90;49.80;;;;;;5048683;28;20469;-64
2022/06/20 07:46:13;;;;;;;3.83;2.67;;;27.90;49.70;;;;;;5047191;28;20036;-66
2022/06/20 07:48:41;;;;;;;3.60;2.58;;;28.00;49.70;;;;;;5052371;28;20024;-66
2022/06/20 07:51:18;;;;;;;3.22;2.33;;;28.00;49.60;;;;;;5048277;28;20595;-66
2022/06/20 07:54:00;;;;;;;3.40;2.50;;;28.00;49.60;;;;;;5050332;28;20051;-66
2022/06/20 07:56:40;;;;;;;3.67;2.50;;;28.10;49.60;;;;;;5049779;28;20024;-65
2022/06/20 07:59:41;;;;;;;3.55;2.60;;;28.10;49.50;;;;;;5051622;28;20235;-66
2022/06/20 08:02:12;;;;;;;3.45;2.40;;;28.10;49.50;;;;;;5052712;28;20033;-64
2022/06/20 08:04:39;;;;;;;4.10;2.50;;;28.10;49.50;;;;;;5051204;28;20484;-63
2022/06/20 08:07:24;;;;;;;3.20;2.03;;;28.10;49.50;;;;;;5044683;28;20072;-66
2022/06/20 08:10:12;;;;;;;3.42;2.38;;;28.20;49.50;;;;;;5048890;28;20469;-66
2022/06/20 08:12:44;;;;;;;3.20;2.30;;;28.10;49.40;;;;;;5048334;28;20016;-65
2022/06/20 08:15:23;;;;;;;4.78;2.63;;;28.20;49.40;;;;;;5047148;28;20032;-64
2022/06/20 08:17:50;;;;;;;3.47;2.40;;;28.20;49.30;;;;;;5047722;28;20119;-63
2022/06/20 08:20:17;;;;;;;3.08;2.20;;;28.20;49.30;;;;;;5053081;28;20035;-64
2022/06/20 08:22:55;;;;;;;3.38;2.38;;;28.20;49.30;;;;;;5050846;28;20470;-66
2022/06/20 08:25:24;;;;;;;3.13;2.15;;;28.20;49.30;;;;;;5043898;28;20112;-66
2022/06/20 08:28:12;;;;;;;3.95;2.35;;;28.20;49.20;;;;;;5047618;28;20033;-63
2022/06/20 08:30:52;;;;;;;3.75;2.40;;;28.20;49.20;;;;;;5029407;28;20436;-66
2022/06/20 08:33:41;;;;;;;4.15;2.30;;;28.20;49.20;;;;;;5040282;28;20021;-66
2022/06/20 08:36:45;;;;;;;3.42;2.40;;;28.20;49.20;;;;;;5043116;28;21078;-65
2022/06/20 08:39:24;;;;;;;3.22;2.20;;;28.20;49.20;;;;;;5029211;28;20428;-66
2022/06/20 08:41:59;;;;;;;3.15;2.35;;;28.20;49.20;;;;;;5043135;28;20561;-65
2022/06/20 08:45:03;;;;;;;3.20;2.25;;;28.20;49.20;;;;;;5045838;28;20036;-63
2022/06/20 08:47:49;;;;;;;3.63;2.55;;;28.20;49.10;;;;;;4935858;28;20034;-65
2022/06/20 08:50:51;;;;;;;4.28;2.83;;;28.30;49.20;;;;;;4951825;28;20042;-66
2022/06/20 08:53:54;;;;;;;3.72;2.50;;;28.20;49.80;;;;;;5033288;28;20091;-66
2022/06/20 08:56:45;;;;;;;4.15;2.60;;;28.30;49.60;;;;;;5047099;28;20033;-65
2022/06/20 08:59:34;;;;;;;3.40;2.40;;;28.30;49.40;;;;;;5050663;28;20067;-66
2022/06/20 09:02:12;;;;;;;;;;;28.30;49.40;;;;;;5045312;28;21876;-65
2022/06/20 09:04:58;;;;;;;4.20;2.30;;;28.30;49.30;;;;;;5042884;28;19943;-63
2022/06/20 09:07:35;;;;;;;7.75;3.85;;;28.40;49.30;;;;;;5048762;28;20044;-65
2022/06/20 09:10:33;;;;;;;6.60;3.67;;;28.30;49.30;;;;;;5046886;28;20031;-66
2022/06/20 09:12:58;;;;;;;6.25;3.10;;;28.40;49.50;;;;;;5027998;28;20045;-63
2022/06/20 09:15:48;;;;;;;5.22;3.05;;;28.40;49.30;;;;;;5052433;28;20588;-65
2022/06/20 09:18:53;;;;;;;3.33;2.53;;;28.40;49.30;;;;;;5051598;28;20388;-65
2022/06/20 09:21:35;;;;;;;4.43;2.50;;;28.40;49.30;;;;;;5049860;28;20037;-65
2022/06/20 09:24:01;;;;;;;6.55;3.28;;;28.40;49.30;;;;;;5048982;28;20427;-65
2022/06/20 09:26:33;;;;;;;5.72;3.33;;;28.40;49.30;;;;;;5053449;28;20086;-65
2022/06/20 09:29:37;;;;;;;5.00;2.90;;;28.40;49.80;;;;;;5050052;28;20059;-65
2022/06/20 09:32:40;;;;;;;5.15;2.95;;;28.40;49.30;;;;;;5041738;28;20457;-65
2022/06/20 09:35:24;;;;;;;5.40;3.20;;;28.40;49.30;;;;;;5043768;28;20516;-61
2022/06/20 09:38:14;;;;;;;5.00;2.95;;;28.40;49.30;;;;;;5047460;28;20644;-65
2022/06/20 09:40:47;;;;;;;5.57;3.17;;;28.40;49.30;;;;;;5049155;28;20032;-65
2022/06/20 09:43:19;;;;;;;4.97;2.72;;;28.40;49.30;;;;;;5047150;28;20086;-65
2022/06/20 09:45:56;;;;;;;5.13;2.70;;;28.40;49.30;;;;;;5043217;28;20113;-66
2022/06/20 09:48:43;;;;;;;3.53;2.35;;;28.40;49.30;;;;;;5048607;28;20439;-64
2022/06/20 09:51:26;;;;;;;5.22;2.80;;;28.40;49.80;;;;;;5051320;28;20119;-65
2022/06/20 09:54:10;;;;;;;5.30;3.05;;;28.40;49.30;;;;;;5039186;28;21794;-66
2022/06/20 09:56:36;;;;;;;4.95;2.70;;;28.40;49.30;;;;;;5047747;28;20488;-64
2022/06/20 09:59:40;;;;;;;4.50;2.67;;;28.40;49.30;;;;;;5039545;28;20537;-66
2022/06/20 10:02:36;;;;;;;4.45;2.60;;;28.30;49.20;;;;;;5046119;27;20029;-67
2022/06/20 10:05:14;;;;;;;3.38;2.45;;;28.30;49.20;;;;;;5049325;28;20051;-68
2022/06/20 10:07:55;;;;;;;4.32;2.60;;;28.40;49.30;;;;;;5047348;28;20156;-65
2022/06/20 10:10:27;;;;;;;4.30;2.60;;;28.30;49.20;;;;;;5048450;28;20033;-66
2022/06/20 10:13:11;;;;;;;4.57;2.60;;;28.30;49.20;;;;;;5049205;28;20025;-67
2022/06/20 10:16:02;;;;;;;4.35;2.55;;;28.40;49.30;;;;;;5045183;28;20469;-66
2022/06/20 10:18:27;;;;;;;4.05;2.60;;;28.30;49.20;;;;;;5046152;28;20065;-66
2022/06/20 10:21:08;;;;;;;4.35;2.30;;;28.30;49.20;;;;;;5044898;28;20058;-66
2022/06/20 10:24:02;;;;;;;3.30;2.30;;;28.30;49.20;;;;;;5041778;28;20071;-66
2022/06/20 10:26:42;;;;;;;3.30;2.38;;;28.30;49.20;;;;;;5048681;28;20020;-63
2022/06/20 10:29:23;;;;;;;3.92;2.28;;;28.30;49.10;;;;;;5043216;28;20044;-64
2022/06/20 10:32:18;;;;;;;4.13;2.58;;;28.30;49.20;;;;;;5047237;28;20032;-66
2022/06/20 10:34:53;;;;;;;2.80;2.08;;;28.30;49.10;;;;;;5047222;28;20381;-64
2022/06/20 10:37:33;;;;;;;4.72;2.55;;;28.30;49.10;;;;;;5078278;28;20051;-66
2022/06/20 10:40:33;;;;;;;3.72;2.40;;;28.30;49.10;;;;;;5043882;28;20029;-65
2022/06/20 10:43:10;;;;;;;3.65;2.33;;;28.30;49.20;;;;;;5044188;28;20025;-66
2022/06/20 10:45:46;;;;;;;4.18;1.90;;;28.30;49.20;;;;;;5045279;28;20033;-66
2022/06/20 10:48:53;;;;;;;3.85;2.30;;;28.30;49.20;;;;;;5043552;28;20059;-66
2022/06/20 10:51:52;;;;;;;3.63;2.22;;;28.30;49.20;;;;;;4992726;28;20069;-67
2022/06/20 10:54:29;;;;;;;;;;;28.30;49.20;;;;;;4991332;28;20040;-64
2022/06/20 10:57:24;;;;;;;3.15;1.92;;;28.20;49.10;;;;;;5033307;28;19908;-65
2022/06/20 11:00:10;;;;;;;3.17;2.28;;;28.30;49.20;;;;;;5038010;28;20388;-64
2022/06/20 11:02:42;;;;;;;4.03;2.22;;;28.20;49.10;;;;;;5043378;28;20187;-66
2022/06/20 11:05:29;;;;;;;3.20;2.40;;;28.30;49.30;;;;;;5046956;28;20021;-66
2022/06/20 11:08:04;;;;;;;4.10;2.30;;;28.20;49.20;;;;;;5043439;28;20079;-65
2022/06/20 11:10:58;;;;;;;3.92;2.38;;;28.30;49.30;;;;;;5025087;28;20639;-67
2022/06/20 11:13:42;;;;;;;4.40;2.78;;;28.20;49.30;;;;;;5019161;28;20021;-66
2022/06/20 11:16:12;;;;;;;3.83;2.50;;;28.20;49.30;;;;;;5025423;28;20052;-66
2022/06/20 11:18:48;;;;;;;3.45;2.40;;;28.20;49.30;;;;;;5030780;28;20081;-65
2022/06/20 11:21:30;;;;;;;3.85;2.50;;;28.20;49.40;;;;;;5026141;28;20048;-67
2022/06/20 11:24:08;;;;;;;4.25;2.50;;;28.20;49.40;;;;;;5019431;28;20533;-66
2022/06/20 11:27:11;;;;;;;3.72;2.33;;;28.20;49.40;;;;;;5029783;28;20331;-64
2022/06/20 11:30:12;;;;;;;4.47;2.40;;;28.20;49.40;;;;;;5023956;28;20067;-67
2022/06/20 11:33:05;;;;;;;3.60;2.58;;;28.20;49.40;;;;;;5027724;28;20033;-66
2022/06/20 11:35:43;;;;;;;3.92;2.30;;;28.20;49.50;;;;;;5025861;28;20065;-66
2022/06/20 11:38:23;;;;;;;5.80;2.40;;;28.20;49.40;;;;;;5035228;28;20495;-65
2022/06/20 11:41:05;;;;;;;4.03;2.30;;;28.20;49.50;;;;;;5024598;28;20021;-66
2022/06/20 11:43:43;;;;;;;4.20;2.42;;;28.10;49.40;;;;;;5023857;28;20056;-66
2022/06/20 11:46:33;;;;;;;5.40;2.60;;;28.10;49.50;;;;;;5014476;28;20033;-66
2022/06/20 11:49:02;;;;;;;3.88;2.58;;;28.10;49.50;;;;;;5049385;28;20033;-63
2022/06/20 11:51:40;;;;;;;3.70;2.28;;;28.10;49.50;;;;;;5029412;28;20083;-66
2022/06/20 11:54:23;;;;;;;3.22;2.03;;;28.10;49.50;;;;;;5027581;28;20037;-66
2022/06/20 11:56:51;;;;;;;6.95;2.97;;;28.10;49.50;;;;;;5032946;28;20108;-65
2022/06/20 11:59:28;;;;;;;3.05;2.20;;;28.10;49.50;;;;;;5031640;28;20432;-66
2022/06/20 12:02:23;;;;;;;4.03;2.50;;;28.10;49.50;;;;;;5029311;28;20036;-65
2022/06/20 12:05:00;;;;;;;3.63;2.22;;;28.10;49.60;;;;;;5030975;28;20033;-69
2022/06/20 12:07:35;;;;;;;3.25;2.20;;;28.10;49.60;;;;;;5031134;28;20040;-67
2022/06/20 12:10:26;;;;;;;3.65;2.38;;;28.10;49.60;;;;;;5028239;28;20508;-67
2022/06/20 12:13:04;;;;;;;3.80;2.28;;;28.10;49.60;;;;;;5028076;28;20433;-63
2022/06/20 12:15:55;;;;;;;3.35;2.35;;;28.10;49.70;;;;;;5017488;28;20397;-67
2022/06/20 12:18:39;;;;;;;3.03;2.10;;;28.10;49.70;;;;;;5027616;28;20053;-63
2022/06/20 12:24:05;;;;;;;3.83;2.38;;;28.10;49.70;;;;;;5031371;28;20089;-65
2022/06/20 12:26:35;;;;;;;3.42;2.30;;;28.10;49.70;;;;;;5029444;28;20078;-64
2022/06/20 12:29:08;;;;;;;3.78;2.53;;;28.10;49.70;;;;;;5028298;28;20059;-67
2022/06/20 12:31:37;;;;;;;3.33;2.22;;;28.10;49.70;;;;;;5027562;28;20070;-67
2022/06/20 12:34:17;;;;;;;3.13;2.13;;;28.00;49.70;;;;;;5032324;28;20056;-67
2022/06/20 12:37:19;;;;;;;3.22;2.40;;;28.00;49.60;;;;;;5030905;28;20033;-64
2022/06/20 12:39:57;;;;;;;3.85;2.60;;;28.10;49.60;;;;;;5024450;28;20128;-66
2022/06/20 12:42:38;;;;;;;3.58;2.58;;;28.10;49.70;;;;;;5028135;28;20040;-65
2022/06/20 12:45:38;;;;;;;4.05;2.58;;;28.10;49.60;;;;;;5029714;28;20041;-66
2022/06/20 12:48:22;;;;;;;3.60;2.17;;;28.00;49.60;;;;;;5025457;28;20044;-67
2022/06/20 12:51:04;;;;;;;3.38;2.28;;;28.10;49.70;;;;;;5025905;28;20621;-67
2022/06/20 12:53:39;;;;;;;4.07;2.25;;;28.00;49.60;;;;;;5030903;28;20056;-67
2022/06/20 12:56:13;;;;;;;3.28;2.17;;;28.00;49.60;;;;;;5028287;28;20106;-66
2022/06/20 12:59:08;;;;;;;3.22;2.20;;;28.00;49.60;;;;;;5030824;28;20033;-66
2022/06/20 13:01:51;;;;;;;3.50;2.40;;;28.00;49.60;;;;;;5032015;28;20064;-65
2022/06/20 13:04:25;;;;;;;3.20;2.08;;;28.00;49.60;;;;;;5030618;28;20025;-64
2022/06/20 13:07:03;;;;;;;3.33;2.20;;;28.00;49.60;;;;;;5025314;28;20029;-66
2022/06/20 13:09:34;;;;;;;3.00;2.22;;;28.00;49.60;;;;;;5028702;28;20032;-68
2022/06/20 13:12:07;;;;;;;3.22;2.40;;;28.10;49.70;;;;;;5019742;28;20037;-65
2022/06/20 13:14:50;;;;;;;3.40;2.28;;;28.00;49.70;;;;;;5025950;28;20720;-69
2022/06/20 13:17:40;;;;;;;3.88;2.35;;;28.00;49.70;;;;;;5028425;28;20473;-68
2022/06/20 13:20:15;;;;;;;3.00;2.20;;;28.00;49.70;;;;;;5029513;28;20112;-67
2022/06/20 13:23:09;;;;;;;4.15;2.38;;;28.00;49.70;;;;;;5016918;28;20119;-67
2022/06/20 13:25:50;;;;;;;3.70;2.20;;;28.00;49.70;;;;;;5022696;28;20036;-66
2022/06/20 13:28:43;;;;;;;3.08;2.15;;;28.00;49.70;;;;;;5025696;28;20203;-67
2022/06/20 13:31:20;;;;;;;2.85;2.08;;;28.00;49.70;;;;;;5026404;28;20049;-68
2022/06/20 13:34:31;;;;;;;3.25;2.00;;;28.00;49.70;;;;;;5029777;28;20865;-66
2022/06/20 13:37:17;;;;;;;3.38;2.13;;;28.00;49.70;;;;;;5016686;28;20040;-67
2022/06/20 13:39:50;;;;;;;2.47;1.83;;;28.00;49.70;;;;;;5022271;28;20475;-66
2022/06/20 13:42:43;;;;;;;3.25;2.20;;;28.00;49.70;;;;;;5018292;28;20017;-66
2022/06/20 13:45:29;;;;;;;3.55;2.35;;;28.00;49.70;;;;;;5022650;28;20036;-67
2022/06/20 13:48:13;;;;;;;2.80;2.10;;;28.00;49.70;;;;;;5026397;28;20055;-67
2022/06/20 13:50:55;;;;;;;3.78;2.20;;;28.00;49.80;;;;;;5024015;28;20491;-67
2022/06/20 13:53:32;;;;;;;3.65;2.58;;;28.00;49.80;;;;;;5024579;28;20485;-66